LIMG METAR and TAF | Updated Today

LIMG METAR

Villanova D'Albenga International Airport

Villanova D'Albenga International Airport (LIMG) hasn't published a METAR.
We found the following current weather conditions for Villanova d'Albenga from other sources.

Villanova D'Albenga International Airport (LIMG) METAR

  • Weather conditions right now at LIMG:
  • Present conditions: Rain
  • Clouds: Moderate rain
  • Cloud cover: 75%
  • Wind: 296 at 10kts
  • Temperature: 5 celsius
  • Feels like: 1.2 celsius
  • Pressure: 1004mb
  • Humidity: 92%


Useful to know...

LIMG TAF

Villanova D'Albenga International Airport

TAF LIMG 071100Z 0712/0812 20010KT 9999 SCT030 BECMG 0802/0804 03011KT 4000 SHRA
Observation time: 19:33 hr. ago
Need help? Read our tutorial on how to read TAFs or read the parsed version below.

Parsed version of TAF for Villanova D'Albenga International Airport (LIMG)

  • From 07 December at 12:00 UTC, to day 08 of the month at 12:00 UTC
  • Clouds: Scattered at 914 meters
  • Visibility: Greater than 10 km
  • Wind: 200 degrees at 10
  • Expected to arise soon, from 08 December at 02:00 UTC, to day 08 of the month at 04:00 UTC
  • Visibility: 4000 meters
  • Wind: 30 degrees at 11
  • Other: Showers of rain